Time;durP1;ratioP1;P1;durP2;ratioP2;P2;SDS_P1;SDS_P2;PMS_P1;PMS_P2;Temp;Humidity;BMP_temperature;BMP_pressure;BME280_temperature;BME280_humidity;BME280_pressure;Samples;Min_cycle;Max_cycle;Signal;HPM_P1;HPM_P2
2022/07/05 00:02:18;;;;;;;2.03;0.93;;;23.40;56.00;;;;;;4494574;31;20139;-68
2022/07/05 00:04:44;;;;;;;1.70;0.70;;;23.40;56.00;;;;;;4493730;31;20402;-76
2022/07/05 00:07:20;;;;;;;2.88;1.00;;;23.40;56.00;;;;;;4494349;31;20486;-67
2022/07/05 00:09:54;;;;;;;2.38;1.05;;;23.40;56.00;;;;;;4494598;31;20154;-67
2022/07/05 00:12:23;;;;;;;3.33;0.82;;;23.40;56.00;;;;;;4494035;31;20399;-68
2022/07/05 00:14:50;;;;;;;2.17;0.90;;;23.40;56.00;;;;;;4494136;31;20089;-67
2022/07/05 00:17:16;;;;;;;1.38;0.77;;;23.40;56.00;;;;;;4492688;31;20146;-68
2022/07/05 00:19:42;;;;;;;1.75;0.95;;;23.40;56.10;;;;;;4493796;31;20065;-68
2022/07/05 00:22:08;;;;;;;1.83;0.80;;;23.30;56.90;;;;;;4494058;31;20077;-69
2022/07/05 00:24:34;;;;;;;1.80;0.77;;;23.40;56.00;;;;;;4493803;31;20073;-68
2022/07/05 00:27:01;;;;;;;2.63;0.80;;;23.40;56.10;;;;;;4494326;31;20203;-67
2022/07/05 00:29:27;;;;;;;1.17;0.70;;;23.30;56.00;;;;;;4494181;31;20124;-67
2022/07/05 00:31:53;;;;;;;3.05;1.10;;;23.30;56.00;;;;;;4492858;31;20068;-67
2022/07/05 00:34:19;;;;;;;2.80;0.88;;;23.30;56.00;;;;;;4494129;31;20077;-68
2022/07/05 00:36:46;;;;;;;5.32;0.98;;;23.30;56.00;;;;;;4493756;31;20061;-67
2022/07/05 00:39:12;;;;;;;2.67;0.90;;;23.30;56.00;;;;;;4493803;31;20087;-67
2022/07/05 00:41:38;;;;;;;1.88;0.80;;;23.30;56.00;;;;;;4494073;31;20069;-67
2022/07/05 00:44:07;;;;;;;3.83;1.08;;;23.30;56.10;;;;;;4493785;31;20195;-67
2022/07/05 00:46:34;;;;;;;2.30;0.90;;;23.30;56.10;;;;;;4493734;31;20407;-67
2022/07/05 00:49:01;;;;;;;1.80;0.80;;;23.30;56.10;;;;;;4493218;31;20525;-67
2022/07/05 00:51:30;;;;;;;1.95;0.95;;;23.30;56.10;;;;;;4493349;31;20511;-68
2022/07/05 00:53:56;;;;;;;1.95;0.85;;;23.30;56.10;;;;;;4492150;31;20608;-67
2022/07/05 00:56:24;;;;;;;1.80;0.80;;;23.30;56.10;;;;;;4493789;31;20081;-68
2022/07/05 00:58:50;;;;;;;2.30;0.82;;;23.30;56.10;;;;;;4493759;31;20084;-67
2022/07/05 01:01:16;;;;;;;2.47;0.73;;;23.30;56.20;;;;;;4493670;31;20068;-67
2022/07/05 01:03:43;;;;;;;2.97;0.80;;;23.30;56.20;;;;;;4493402;31;20580;-67
2022/07/05 01:06:11;;;;;;;2.08;0.80;;;23.30;56.20;;;;;;4493671;31;20085;-68
2022/07/05 01:08:40;;;;;;;1.90;0.80;;;23.30;56.20;;;;;;4493322;31;20194;-68
2022/07/05 01:11:07;;;;;;;1.58;0.57;;;23.30;56.20;;;;;;4493285;31;20077;-67
2022/07/05 01:13:33;;;;;;;1.40;0.70;;;23.30;56.20;;;;;;4493097;31;20230;-67
2022/07/05 01:16:00;;;;;;;0.50;0.50;;;23.30;56.20;;;;;;4493272;31;20084;-67
2022/07/05 01:18:26;;;;;;;2.05;0.90;;;23.20;56.10;;;;;;4493347;31;20227;-67
2022/07/05 01:20:52;;;;;;;2.70;0.80;;;23.20;56.10;;;;;;4493417;31;20098;-67
2022/07/05 01:23:18;;;;;;;2.92;0.90;;;23.20;56.10;;;;;;4492850;31;20496;-67
2022/07/05 01:25:46;;;;;;;2.45;1.00;;;23.30;56.20;;;;;;4493110;31;20376;-67
2022/07/05 01:28:13;;;;;;;1.55;0.77;;;23.30;56.20;;;;;;4493056;31;20282;-68
2022/07/05 01:30:39;;;;;;;1.20;0.70;;;23.30;56.20;;;;;;4492921;31;20483;-67
2022/07/05 01:33:06;;;;;;;2.22;0.70;;;23.20;56.20;;;;;;4493004;31;20242;-67
2022/07/05 01:35:32;;;;;;;1.58;0.70;;;23.20;56.20;;;;;;4493232;31;20081;-68
2022/07/05 01:37:59;;;;;;;3.33;1.02;;;23.20;56.20;;;;;;4492796;31;20154;-68
2022/07/05 01:40:25;;;;;;;2.10;0.73;;;23.20;56.20;;;;;;4492860;31;20108;-67
2022/07/05 01:42:51;;;;;;;1.67;0.80;;;23.20;56.20;;;;;;4493010;31;20077;-67
2022/07/05 01:48:04;;;;;;;2.28;1.00;;;23.20;56.20;;;;;;4492456;31;20384;-68
2022/07/05 01:50:34;;;;;;;1.00;0.63;;;23.20;56.20;;;;;;4492444;31;20081;-68
2022/07/05 01:53:02;;;;;;;1.52;0.73;;;23.20;56.20;;;;;;4492764;31;20081;-67
2022/07/05 01:55:30;;;;;;;2.47;0.80;;;23.10;56.20;;;;;;4491287;31;20065;-67
2022/07/05 01:57:56;;;;;;;1.20;0.65;;;23.10;56.30;;;;;;4492338;31;20526;-67
2022/07/05 02:00:22;;;;;;;1.50;0.50;;;23.20;56.20;;;;;;4491454;31;20068;-67
2022/07/05 02:02:48;;;;;;;1.00;0.40;;;23.20;56.20;;;;;;4492802;31;20057;-67
2022/07/05 02:05:14;;;;;;;2.45;0.73;;;23.10;56.20;;;;;;4492125;31;20650;-67
2022/07/05 02:07:47;;;;;;;1.75;0.63;;;23.10;56.20;;;;;;4492193;31;20073;-67
2022/07/05 02:10:14;;;;;;;2.50;0.70;;;23.10;56.20;;;;;;4492562;31;20095;-68
2022/07/05 02:12:40;;;;;;;1.83;0.70;;;23.10;56.30;;;;;;4492506;31;20077;-67
2022/07/05 02:15:06;;;;;;;1.30;0.70;;;23.10;56.30;;;;;;4492377;31;20153;-67
2022/07/05 02:17:32;;;;;;;1.77;0.75;;;23.10;56.30;;;;;;4492043;31;20510;-67
2022/07/05 02:19:58;;;;;;;1.73;0.88;;;23.10;56.30;;;;;;4492582;31;20087;-67
2022/07/05 02:22:24;;;;;;;0.85;0.60;;;23.10;56.30;;;;;;4492530;31;20100;-67
2022/07/05 02:24:50;;;;;;;2.00;0.50;;;23.10;56.30;;;;;;4492016;31;20131;-67
2022/07/05 02:27:16;;;;;;;1.50;0.70;;;23.10;56.30;;;;;;4491267;31;20210;-68
2022/07/05 02:29:41;;;;;;;1.15;0.60;;;23.10;56.30;;;;;;4492143;31;20069;-67
2022/07/05 02:32:07;;;;;;;1.13;0.57;;;23.10;56.40;;;;;;4492431;31;20498;-67
2022/07/05 02:34:33;;;;;;;2.13;0.80;;;23.10;56.30;;;;;;4492167;31;20158;-67
2022/07/05 02:36:59;;;;;;;1.55;0.68;;;23.10;56.30;;;;;;4492073;31;20065;-67
2022/07/05 02:39:25;;;;;;;1.80;0.75;;;23.10;56.30;;;;;;4491791;31;20116;-68
2022/07/05 02:41:50;;;;;;;1.90;0.60;;;23.00;56.30;;;;;;4492366;31;20075;-67
2022/07/05 02:44:16;;;;;;;0.90;0.60;;;23.10;56.30;;;;;;4492069;31;20427;-67
2022/07/05 02:46:42;;;;;;;2.33;0.70;;;23.10;56.30;;;;;;4492294;31;20069;-67
2022/07/05 02:49:08;;;;;;;0.98;0.52;;;23.00;56.30;;;;;;4491604;31;20061;-67
2022/07/05 02:51:33;;;;;;;1.23;0.68;;;23.00;56.40;;;;;;4491968;31;20218;-67
2022/07/05 02:53:59;;;;;;;0.98;0.50;;;23.00;56.30;;;;;;4491689;31;20178;-67
2022/07/05 02:56:25;;;;;;;1.58;0.70;;;23.00;56.30;;;;;;4491927;31;20243;-67
2022/07/05 02:58:51;;;;;;;1.60;0.60;;;23.00;56.40;;;;;;4491862;32;20178;-67
2022/07/05 03:01:16;;;;;;;1.30;0.68;;;23.00;56.30;;;;;;4492046;32;20166;-68
2022/07/05 03:03:42;;;;;;;1.05;0.57;;;23.00;56.40;;;;;;4491907;32;20065;-67
2022/07/05 03:06:08;;;;;;;0.98;0.50;;;23.00;56.30;;;;;;4492125;32;20139;-67
2022/07/05 03:08:34;;;;;;;1.42;0.55;;;23.00;56.40;;;;;;4491609;32;20061;-67
2022/07/05 03:11:00;;;;;;;1.90;0.60;;;23.00;56.40;;;;;;4492103;32;20211;-68
2022/07/05 03:13:26;;;;;;;1.00;0.50;;;22.90;56.30;;;;;;4491547;32;20154;-67
2022/07/05 03:15:52;;;;;;;1.05;0.60;;;23.00;56.40;;;;;;4491899;32;20174;-67
2022/07/05 03:18:21;;;;;;;1.75;0.68;;;22.90;56.30;;;;;;4494258;31;20085;-68
2022/07/05 03:20:47;;;;;;;1.33;0.45;;;22.90;56.30;;;;;;4480562;31;20076;-67
2022/07/05 03:23:13;;;;;;;2.03;0.50;;;22.90;56.40;;;;;;4480743;31;20103;-69
2022/07/05 03:25:38;;;;;;;1.30;0.50;;;22.90;56.40;;;;;;4494614;31;20150;-67
2022/07/05 03:28:04;;;;;;;1.58;0.70;;;22.90;56.40;;;;;;4494839;31;20093;-67
2022/07/05 03:30:30;;;;;;;1.63;0.68;;;22.90;56.40;;;;;;4494719;31;20065;-67
2022/07/05 03:32:56;;;;;;;0.85;0.47;;;22.90;57.40;;;;;;4494771;31;20233;-68
2022/07/05 03:35:22;;;;;;;1.17;0.50;;;22.90;56.40;;;;;;4494796;31;20140;-67
2022/07/05 03:37:47;;;;;;;2.45;0.75;;;22.90;56.40;;;;;;4494626;31;20146;-68
2022/07/05 03:40:13;;;;;;;2.28;0.65;;;22.90;56.40;;;;;;4494953;31;20116;-68
2022/07/05 03:42:39;;;;;;;1.40;0.45;;;22.90;56.50;;;;;;4494642;31;20151;-67
2022/07/05 03:45:05;;;;;;;1.38;0.50;;;22.90;56.50;;;;;;4494884;31;20089;-67
2022/07/05 03:47:31;;;;;;;1.08;0.55;;;22.90;56.50;;;;;;4494125;31;20095;-67
2022/07/05 03:49:57;;;;;;;1.70;0.57;;;22.90;56.60;;;;;;4494649;31;20072;-67
2022/07/05 03:52:23;;;;;;;2.20;0.43;;;22.90;56.60;;;;;;4494246;31;20430;-67
2022/07/05 03:54:49;;;;;;;1.25;0.50;;;22.90;56.60;;;;;;4494453;31;20081;-67
2022/07/05 03:57:14;;;;;;;1.65;0.70;;;22.90;56.60;;;;;;4494350;31;20065;-67
2022/07/05 03:59:40;;;;;;;0.65;0.40;;;22.90;56.50;;;;;;4494496;31;20069;-68
2022/07/05 04:02:06;;;;;;;1.15;0.60;;;22.90;56.60;;;;;;4494296;31;20427;-67
2022/07/05 04:04:32;;;;;;;1.13;0.47;;;22.80;56.60;;;;;;4493055;31;20091;-67
2022/07/05 04:06:58;;;;;;;1.77;0.47;;;22.80;56.60;;;;;;4494541;31;20069;-67
2022/07/05 04:09:24;;;;;;;0.73;0.43;;;22.80;56.60;;;;;;4494088;31;20065;-67
2022/07/05 04:11:50;;;;;;;1.83;0.50;;;22.80;56.60;;;;;;4494232;31;20090;-67
2022/07/05 04:14:16;;;;;;;0.50;0.30;;;22.80;56.60;;;;;;4494269;31;20403;-68
2022/07/05 04:16:42;;;;;;;0.38;0.30;;;22.90;56.60;;;;;;4494192;31;20199;-67
2022/07/05 04:19:08;;;;;;;1.70;0.50;;;22.80;56.60;;;;;;4494265;31;20215;-68
2022/07/05 04:21:34;;;;;;;1.15;0.50;;;22.80;56.60;;;;;;4494111;31;20099;-67
2022/07/05 04:24:00;;;;;;;1.40;0.50;;;22.80;56.60;;;;;;4494230;31;20065;-67
2022/07/05 04:26:26;;;;;;;0.85;0.45;;;22.80;56.60;;;;;;4493797;31;20458;-68
2022/07/05 04:28:52;;;;;;;0.75;0.40;;;22.80;56.60;;;;;;4493285;31;20092;-67
2022/07/05 04:31:18;;;;;;;1.50;0.50;;;22.80;56.60;;;;;;4494148;31;20061;-67
2022/07/05 04:33:43;;;;;;;0.75;0.40;;;22.80;56.60;;;;;;4493929;31;20475;-67
2022/07/05 04:36:09;;;;;;;1.08;0.60;;;22.80;56.60;;;;;;4494153;31;20123;-67
2022/07/05 04:38:35;;;;;;;1.08;0.50;;;22.80;56.60;;;;;;4493964;31;20061;-67
2022/07/05 04:41:01;;;;;;;0.52;0.32;;;22.80;56.60;;;;;;4493612;31;20534;-67
2022/07/05 04:43:27;;;;;;;0.93;0.45;;;22.80;56.60;;;;;;4493500;31;20088;-68
2022/07/05 04:45:53;;;;;;;1.15;0.35;;;22.80;56.60;;;;;;4493494;31;20139;-67
2022/07/05 04:48:18;;;;;;;1.25;0.60;;;22.80;56.70;;;;;;4493530;31;20069;-67
2022/07/05 04:50:44;;;;;;;1.00;0.40;;;22.80;56.60;;;;;;4493686;31;20503;-67
2022/07/05 04:53:10;;;;;;;0.65;0.40;;;22.70;56.70;;;;;;4493796;31;20499;-67
2022/07/05 04:55:36;;;;;;;1.30;0.55;;;22.80;56.60;;;;;;4493460;31;20185;-67
2022/07/05 04:58:02;;;;;;;1.10;0.40;;;22.80;56.60;;;;;;4493225;31;20612;-67
2022/07/05 05:00:27;;;;;;;0.70;0.50;;;22.70;56.60;;;;;;4493472;31;20076;-67
2022/07/05 05:02:53;;;;;;;0.65;0.30;;;22.70;56.60;;;;;;4493495;31;20637;-67
2022/07/05 05:05:19;;;;;;;0.98;0.47;;;22.80;56.70;;;;;;4493630;31;20077;-67
2022/07/05 05:07:45;;;;;;;1.45;0.57;;;22.80;57.60;;;;;;4493096;31;20414;-68
2022/07/05 05:10:12;;;;;;;1.25;0.60;;;22.80;56.70;;;;;;4493413;31;20093;-74
2022/07/05 05:12:39;;;;;;;0.45;0.32;;;22.80;56.70;;;;;;4493300;31;20093;-67
2022/07/05 05:15:09;;;;;;;0.60;0.50;;;22.70;56.70;;;;;;4493009;31;20069;-67
2022/07/05 05:17:39;;;;;;;1.25;0.40;;;22.80;56.70;;;;;;4493328;31;20077;-67
2022/07/05 05:20:11;;;;;;;0.73;0.50;;;22.70;56.70;;;;;;4492999;31;20087;-68
2022/07/05 05:22:37;;;;;;;1.05;0.40;;;22.70;56.80;;;;;;4493317;31;20601;-67
2022/07/05 05:25:04;;;;;;;1.33;0.45;;;22.70;56.70;;;;;;4493384;31;20128;-71
2022/07/05 05:27:29;;;;;;;1.10;0.47;;;22.70;56.80;;;;;;4493155;31;20073;-67
2022/07/05 05:29:55;;;;;;;1.83;0.55;;;22.70;56.80;;;;;;4491896;31;20376;-67
2022/07/05 05:32:21;;;;;;;0.45;0.40;;;22.70;56.80;;;;;;4493012;31;20076;-67
2022/07/05 05:34:47;;;;;;;0.40;0.40;;;22.70;56.80;;;;;;4493238;31;20101;-67
2022/07/05 05:37:13;;;;;;;0.90;0.30;;;22.80;57.80;;;;;;4492856;31;20461;-69
2022/07/05 05:39:38;;;;;;;1.77;0.52;;;22.80;56.90;;;;;;4492826;31;20077;-66
2022/07/05 05:42:05;;;;;;;1.15;0.45;;;22.70;56.90;;;;;;4492909;31;20065;-66
2022/07/05 05:44:31;;;;;;;0.60;0.32;;;22.80;57.10;;;;;;4492904;31;20069;-66
2022/07/05 05:46:56;;;;;;;2.50;0.70;;;22.80;57.00;;;;;;4492734;31;20100;-70
2022/07/05 05:49:22;;;;;;;1.95;0.73;;;22.80;57.00;;;;;;4492588;31;20085;-66
2022/07/05 05:51:48;;;;;;;2.47;0.70;;;22.80;56.90;;;;;;4492923;31;20399;-66
2022/07/05 05:54:14;;;;;;;2.85;0.70;;;22.80;57.00;;;;;;4492669;31;20209;-67
2022/07/05 05:56:40;;;;;;;2.75;0.80;;;22.80;57.00;;;;;;4492633;31;20061;-66
2022/07/05 05:59:06;;;;;;;2.90;0.70;;;22.90;57.20;;;;;;4492575;31;20580;-66
2022/07/05 06:01:32;;;;;;;3.97;1.10;;;22.90;57.20;;;;;;4492483;31;20077;-66
2022/07/05 06:03:57;;;;;;;4.20;0.95;;;22.90;57.00;;;;;;4492309;31;20083;-67
2022/07/05 06:06:23;;;;;;;2.42;0.80;;;22.90;57.00;;;;;;4492522;31;20103;-66
2022/07/05 06:08:49;;;;;;;2.30;0.80;;;22.90;57.00;;;;;;4492812;31;20077;-65
2022/07/05 06:11:15;;;;;;;2.67;0.80;;;22.90;57.00;;;;;;4492693;31;20120;-66
2022/07/05 06:13:42;;;;;;;13.98;1.00;;;22.90;57.00;;;;;;4492356;31;20106;-66
2022/07/05 06:16:08;;;;;;;1.73;0.93;;;22.90;57.00;;;;;;4491321;31;20091;-66
2022/07/05 06:18:35;;;;;;;3.65;1.23;;;23.00;57.00;;;;;;4492274;31;20533;-66
2022/07/05 06:21:01;;;;;;;2.78;0.90;;;23.00;57.00;;;;;;4492484;31;20065;-65
2022/07/05 06:23:27;;;;;;;7.38;1.20;;;23.00;57.20;;;;;;4492446;31;20194;-66
2022/07/05 06:25:53;;;;;;;2.72;0.75;;;23.10;57.30;;;;;;4492018;31;20507;-65
2022/07/05 06:28:18;;;;;;;5.13;0.90;;;23.10;57.20;;;;;;4492246;31;20120;-65
2022/07/05 06:30:44;;;;;;;2.90;0.60;;;23.10;57.20;;;;;;4492174;31;20166;-65
2022/07/05 06:33:10;;;;;;;2.47;0.80;;;23.10;57.20;;;;;;4492420;31;20081;-66
2022/07/05 06:35:36;;;;;;;3.22;0.70;;;23.20;57.40;;;;;;4491852;31;20097;-65
2022/07/05 06:38:08;;;;;;;3.40;0.98;;;23.20;57.40;;;;;;4491998;31;20084;-65
2022/07/05 06:40:41;;;;;;;2.55;0.77;;;23.20;57.40;;;;;;4491941;31;20100;-66
2022/07/05 06:43:13;;;;;;;3.38;0.93;;;23.30;57.50;;;;;;4492369;31;20088;-66
2022/07/05 06:45:39;;;;;;;2.22;0.90;;;23.30;57.60;;;;;;4492022;31;20238;-66
2022/07/05 06:48:08;;;;;;;3.60;0.70;;;23.30;57.50;;;;;;4491582;31;20072;-67
2022/07/05 06:50:37;;;;;;;5.45;1.10;;;23.30;57.50;;;;;;4491688;31;20089;-67
2022/07/05 06:53:04;;;;;;;4.03;0.93;;;23.30;57.30;;;;;;4491584;31;20096;-66
2022/07/05 06:55:30;;;;;;;3.95;0.85;;;23.40;57.50;;;;;;4491904;31;20084;-66
2022/07/05 06:58:00;;;;;;;2.53;0.85;;;23.40;57.30;;;;;;4491825;31;20057;-67
2022/07/05 07:00:27;;;;;;;3.83;0.90;;;23.40;57.40;;;;;;4491949;32;20097;-67
2022/07/05 07:02:53;;;;;;;2.30;0.60;;;23.50;57.30;;;;;;4492158;32;20525;-66
2022/07/05 07:05:19;;;;;;;3.50;1.10;;;23.50;57.10;;;;;;4491619;32;20077;-66
2022/07/05 07:10:29;;;;;;;2.78;0.80;;;23.50;57.00;;;;;;4491844;32;20081;-68
2022/07/05 07:12:56;;;;;;;4.95;0.95;;;23.50;57.00;;;;;;4491511;32;20087;-66
2022/07/05 07:15:23;;;;;;;4.00;0.88;;;23.50;57.00;;;;;;4490754;32;20427;-66
2022/07/05 07:17:49;;;;;;;7.22;1.10;;;23.50;57.20;;;;;;4491796;32;20070;-66
2022/07/05 07:20:15;;;;;;;4.68;0.90;;;23.50;57.10;;;;;;4490433;32;20081;-66
2022/07/05 07:22:41;;;;;;;4.75;0.90;;;23.50;57.00;;;;;;4490504;32;20169;-66
2022/07/05 07:25:08;;;;;;;5.28;1.00;;;23.40;56.50;;;;;;4491660;32;20124;-66
2022/07/05 07:27:52;;;;;;;7.28;1.00;;;23.40;56.20;;;;;;4491681;32;20087;-66
2022/07/05 07:30:22;;;;;;;;;;;23.40;55.90;;;;;;4491965;32;20077;-66
2022/07/05 07:32:48;;;;;;;2.47;0.90;;;23.30;55.90;;;;;;4491717;31;19981;-66
2022/07/05 07:35:14;;;;;;;4.15;0.80;;;23.30;56.00;;;;;;4491635;32;20077;-66
2022/07/05 07:37:40;;;;;;;6.82;1.45;;;23.30;55.60;;;;;;4491231;32;20209;-66
2022/07/05 07:40:08;;;;;;;2.92;0.75;;;23.30;55.40;;;;;;4491626;32;20285;-66
2022/07/05 07:42:34;;;;;;;6.90;1.00;;;23.20;55.20;;;;;;4491568;32;20081;-66
2022/07/05 07:45:03;;;;;;;3.92;0.90;;;23.20;55.10;;;;;;4491821;32;20073;-67
2022/07/05 07:47:32;;;;;;;8.52;0.98;;;23.10;55.10;;;;;;4491335;32;20089;-66
2022/07/05 07:49:59;;;;;;;6.63;0.90;;;23.10;55.20;;;;;;4491413;31;20406;-66
2022/07/05 07:52:25;;;;;;;6.30;1.05;;;23.10;55.20;;;;;;4491465;32;20162;-66
2022/07/05 07:54:50;;;;;;;6.70;1.00;;;23.10;55.20;;;;;;4490415;32;20090;-66
2022/07/05 07:57:16;;;;;;;3.55;0.50;;;23.10;56.10;;;;;;4491623;32;20120;-66
2022/07/05 07:59:42;;;;;;;2.85;0.93;;;23.10;55.30;;;;;;4491486;32;20215;-66
2022/07/05 08:02:08;;;;;;;3.13;0.52;;;23.00;55.20;;;;;;4491394;32;20089;-66
2022/07/05 08:04:34;;;;;;;3.63;0.80;;;23.00;55.20;;;;;;4492639;31;20099;-67
2022/07/05 08:07:00;;;;;;;3.65;0.90;;;23.00;55.00;;;;;;4494263;31;20207;-67
2022/07/05 08:09:26;;;;;;;5.40;0.85;;;23.00;54.90;;;;;;4494539;31;20079;-67
2022/07/05 08:11:52;;;;;;;4.43;0.55;;;22.90;54.80;;;;;;4494441;31;20096;-67
2022/07/05 08:14:18;;;;;;;4.82;1.05;;;22.90;54.90;;;;;;4494267;31;20081;-67
2022/07/05 08:16:48;;;;;;;3.83;0.80;;;22.90;54.80;;;;;;4494134;31;20072;-67
2022/07/05 08:21:58;;;;;;;6.45;0.98;;;22.90;54.80;;;;;;4494438;31;20084;-66
2022/07/05 08:24:23;;;;;;;4.60;0.98;;;22.90;54.70;;;;;;4494290;31;20103;-66
2022/07/05 08:26:49;;;;;;;8.88;0.90;;;22.90;54.70;;;;;;4492643;31;20087;-67
2022/07/05 08:29:15;;;;;;;3.80;0.95;;;22.90;54.60;;;;;;4493708;31;20530;-66
2022/07/05 08:31:47;;;;;;;6.35;0.75;;;22.90;54.60;;;;;;4493812;31;20171;-66
2022/07/05 08:34:13;;;;;;;4.00;0.43;;;22.90;54.50;;;;;;4492932;31;20518;-67
2022/07/05 08:36:43;;;;;;;6.07;1.00;;;22.90;54.50;;;;;;4494106;31;20065;-66
2022/07/05 08:39:09;;;;;;;5.70;0.93;;;22.90;54.40;;;;;;4492429;31;20100;-66
2022/07/05 08:41:37;;;;;;;3.25;0.82;;;22.80;54.30;;;;;;4493797;31;20092;-66
2022/07/05 08:44:04;;;;;;;4.65;0.70;;;22.80;54.30;;;;;;4492457;31;20155;-66
2022/07/05 08:46:34;;;;;;;3.30;0.85;;;22.80;54.30;;;;;;4493944;31;20485;-66
2022/07/05 08:49:04;;;;;;;4.97;1.00;;;22.80;54.20;;;;;;4493409;31;20077;-68
2022/07/05 08:51:33;;;;;;;6.13;0.80;;;22.80;54.30;;;;;;4494003;31;20057;-66
2022/07/05 08:54:00;;;;;;;5.00;0.60;;;22.80;54.10;;;;;;4493567;31;20088;-71
2022/07/05 08:56:26;;;;;;;4.97;1.10;;;22.80;53.90;;;;;;4493532;31;20170;-66
2022/07/05 08:58:52;;;;;;;5.20;0.75;;;22.80;53.80;;;;;;4493415;31;20089;-66
2022/07/05 09:01:18;;;;;;;3.20;0.77;;;22.80;53.70;;;;;;4493349;31;20098;-66
2022/07/05 09:03:47;;;;;;;2.60;0.63;;;22.80;53.70;;;;;;4493478;31;20077;-66
2022/07/05 09:06:18;;;;;;;4.40;0.60;;;22.80;53.70;;;;;;4493394;31;20092;-66
2022/07/05 09:08:45;;;;;;;5.38;0.82;;;22.80;53.80;;;;;;4493710;31;20085;-65
2022/07/05 09:11:15;;;;;;;3.67;0.80;;;22.80;53.90;;;;;;4493567;31;20077;-66
2022/07/05 09:13:49;;;;;;;4.63;1.08;;;22.80;53.90;;;;;;4493301;31;20326;-66
2022/07/05 09:16:15;;;;;;;6.15;0.93;;;22.80;53.90;;;;;;4493385;31;20081;-66
2022/07/05 09:18:47;;;;;;;4.50;0.90;;;22.80;53.90;;;;;;4493399;31;20080;-66
2022/07/05 09:21:19;;;;;;;5.05;1.08;;;22.80;54.00;;;;;;4493228;31;20073;-66
2022/07/05 09:23:56;;;;;;;5.07;0.80;;;22.80;54.10;;;;;;4493007;31;20546;-66
2022/07/05 09:26:35;;;;;;;5.72;0.77;;;22.80;54.20;;;;;;4492893;31;20541;-66
2022/07/05 09:29:06;;;;;;;4.95;0.80;;;22.80;54.20;;;;;;4493377;31;20534;-66
2022/07/05 09:31:34;;;;;;;5.60;1.17;;;22.80;54.20;;;;;;4493049;31;20073;-66
2022/07/05 09:34:07;;;;;;;3.22;0.80;;;22.70;54.10;;;;;;4493028;31;20530;-67
2022/07/05 09:36:52;;;;;;;6.35;1.02;;;22.70;54.00;;;;;;4493031;31;20073;-66
2022/07/05 09:39:33;;;;;;;3.83;0.70;;;22.70;54.10;;;;;;4493128;31;20085;-66
2022/07/05 09:42:12;;;;;;;5.55;1.23;;;22.70;54.00;;;;;;4492852;31;20079;-66
2022/07/05 09:44:41;;;;;;;4.68;0.70;;;22.80;53.90;;;;;;4492534;31;20541;-66
2022/07/05 09:47:12;;;;;;;4.30;1.00;;;22.70;53.80;;;;;;4492772;31;20124;-66
2022/07/05 09:49:42;;;;;;;3.60;1.02;;;22.80;53.70;;;;;;4492373;31;20184;-66
2022/07/05 09:52:08;;;;;;;3.67;0.85;;;22.80;53.60;;;;;;4493024;31;20168;-67
2022/07/05 09:54:34;;;;;;;5.38;1.20;;;22.70;53.30;;;;;;4492844;31;20068;-67
2022/07/05 09:57:00;;;;;;;2.58;0.80;;;22.80;53.10;;;;;;4492876;31;20206;-66
2022/07/05 09:59:26;;;;;;;2.60;0.65;;;22.80;53.10;;;;;;4492803;31;20073;-66
2022/07/05 10:01:51;;;;;;;1.67;0.50;;;22.80;53.10;;;;;;4492515;31;20073;-66
2022/07/05 10:04:18;;;;;;;5.35;0.93;;;22.80;53.20;;;;;;4492798;31;20113;-66
2022/07/05 10:06:44;;;;;;;2.97;0.85;;;22.80;53.20;;;;;;4492525;31;20135;-66
2022/07/05 10:09:10;;;;;;;6.07;0.98;;;22.80;53.20;;;;;;4492772;31;20135;-66
2022/07/05 10:11:43;;;;;;;3.53;0.60;;;22.80;53.20;;;;;;4492701;31;20158;-66
2022/07/05 10:14:15;;;;;;;3.95;0.60;;;22.80;53.20;;;;;;4492448;31;20214;-66
2022/07/05 10:16:47;;;;;;;5.95;0.88;;;22.80;53.20;;;;;;4492647;31;20073;-65
2022/07/05 10:19:20;;;;;;;2.75;0.65;;;22.80;53.30;;;;;;4491092;31;20072;-67
2022/07/05 10:21:46;;;;;;;3.90;0.77;;;22.80;53.50;;;;;;4492732;31;20198;-66
2022/07/05 10:24:14;;;;;;;4.65;0.73;;;22.80;53.70;;;;;;4491251;31;20085;-66
2022/07/05 10:26:40;;;;;;;2.67;0.57;;;22.80;53.80;;;;;;4491822;31;20138;-66
2022/07/05 10:29:09;;;;;;;2.83;0.70;;;22.80;53.90;;;;;;4492235;31;20478;-68
2022/07/05 10:31:35;;;;;;;2.90;0.80;;;22.80;53.90;;;;;;4492381;31;20087;-67
2022/07/05 10:34:07;;;;;;;7.18;0.80;;;22.90;54.10;;;;;;4492063;31;20127;-68
2022/07/05 10:36:34;;;;;;;5.57;1.40;;;22.90;54.20;;;;;;4492027;31;20095;-68
2022/07/05 10:39:01;;;;;;;4.40;0.70;;;22.90;54.40;;;;;;4492260;31;20087;-67
2022/07/05 10:41:31;;;;;;;8.02;0.93;;;22.90;54.50;;;;;;4491771;31;20264;-68
2022/07/05 10:43:56;;;;;;;3.55;0.65;;;22.90;54.60;;;;;;4492067;31;20073;-68
2022/07/05 10:46:41;;;;;;;8.50;1.00;;;22.90;54.70;;;;;;4492256;31;20360;-67
2022/07/05 10:49:14;;;;;;;5.50;0.98;;;22.90;54.80;;;;;;4491982;31;20593;-67
2022/07/05 10:51:41;;;;;;;5.93;0.70;;;22.90;54.80;;;;;;4492264;31;20089;-67
2022/07/05 10:54:07;;;;;;;4.50;0.82;;;22.90;54.80;;;;;;4491881;31;20108;-67
2022/07/05 10:56:33;;;;;;;4.22;0.85;;;22.90;54.90;;;;;;4491928;31;20073;-67
2022/07/05 10:59:11;;;;;;;5.50;0.88;;;22.90;54.80;;;;;;4491576;31;20427;-67
2022/07/05 11:01:41;;;;;;;9.73;0.93;;;22.90;55.00;;;;;;4491818;31;20076;-66
2022/07/05 11:04:19;;;;;;;4.22;0.80;;;22.90;55.00;;;;;;4491916;31;20510;-67
2022/07/05 11:06:49;;;;;;;8.90;1.15;;;22.90;55.00;;;;;;4490646;32;20081;-66
2022/07/05 11:09:16;;;;;;;4.65;0.88;;;22.90;55.00;;;;;;4492157;32;20073;-66
2022/07/05 11:12:00;;;;;;;2.00;0.60;;;22.90;55.10;;;;;;4491585;32;20206;-66
2022/07/05 11:14:26;;;;;;;5.70;0.90;;;22.90;55.10;;;;;;4491913;32;20087;-66
2022/07/05 11:17:13;;;;;;;3.92;0.65;;;22.90;55.10;;;;;;4491545;32;20124;-66
2022/07/05 11:20:06;;;;;;;4.00;0.70;;;22.90;55.10;;;;;;4491974;32;20088;-65
2022/07/05 11:22:34;;;;;;;4.43;0.85;;;22.90;55.20;;;;;;4489735;32;20081;-67
2022/07/05 11:25:01;;;;;;;3.85;0.63;;;22.90;55.20;;;;;;4491697;32;20161;-67
2022/07/05 11:27:27;;;;;;;3.45;0.70;;;22.90;55.20;;;;;;4491426;32;20084;-66
2022/07/05 11:29:54;;;;;;;4.30;0.60;;;22.90;55.20;;;;;;4491970;32;20167;-66
2022/07/05 11:32:22;;;;;;;4.63;0.80;;;22.90;55.30;;;;;;4491627;32;20207;-66
2022/07/05 11:34:50;;;;;;;5.47;0.95;;;22.90;55.30;;;;;;4491688;32;20127;-66
2022/07/05 11:37:24;;;;;;;4.65;0.77;;;22.90;55.30;;;;;;4491583;32;20487;-67
2022/07/05 11:40:10;;;;;;;3.42;0.80;;;23.00;55.40;;;;;;4494360;31;20132;-66
2022/07/05 11:42:50;;;;;;;2.53;0.75;;;23.00;55.30;;;;;;4494984;31;20096;-66
2022/07/05 11:45:16;;;;;;;5.03;0.80;;;23.00;55.30;;;;;;4494773;31;20493;-67
2022/07/05 11:47:42;;;;;;;1.88;0.73;;;23.10;55.30;;;;;;4494910;31;20073;-66
2022/07/05 11:50:12;;;;;;;6.28;1.38;;;23.10;55.30;;;;;;4494403;31;20117;-66
2022/07/05 11:52:39;;;;;;;4.22;0.75;;;23.00;55.30;;;;;;4494701;31;20121;-66
2022/07/05 11:55:14;;;;;;;6.60;1.08;;;23.00;55.30;;;;;;4494494;31;20446;-66
2022/07/05 11:57:49;;;;;;;4.15;1.00;;;23.10;55.30;;;;;;4494215;31;20081;-66
2022/07/05 12:00:26;;;;;;;4.60;0.80;;;23.10;55.30;;;;;;4494534;31;20069;-66
2022/07/05 12:02:53;;;;;;;2.15;0.70;;;23.10;55.30;;;;;;4494775;31;20088;-66
2022/07/05 12:05:18;;;;;;;5.05;0.90;;;23.00;55.30;;;;;;4494317;31;20491;-66
2022/07/05 12:07:50;;;;;;;5.38;0.88;;;23.10;55.30;;;;;;4494301;31;20079;-66
2022/07/05 12:13:08;;;;;;;3.65;1.05;;;23.10;55.20;;;;;;4493488;31;20185;-66
2022/07/05 12:15:36;;;;;;;1.77;0.55;;;23.10;55.10;;;;;;4494339;31;20218;-66
2022/07/05 12:18:03;;;;;;;3.92;0.70;;;23.10;55.00;;;;;;4494099;31;20095;-66
2022/07/05 12:20:32;;;;;;;4.70;1.05;;;23.10;55.00;;;;;;4494375;31;20076;-66
2022/07/05 12:22:58;;;;;;;5.13;0.90;;;23.10;55.00;;;;;;4493170;31;20230;-66
2022/07/05 12:25:25;;;;;;;2.95;0.65;;;23.10;55.90;;;;;;4494318;31;20077;-66
2022/07/05 12:27:54;;;;;;;2.88;0.70;;;23.10;54.90;;;;;;4494205;31;20084;-66
2022/07/05 12:30:20;;;;;;;3.25;0.60;;;23.10;54.80;;;;;;4494197;31;20103;-66
2022/07/05 12:33:07;;;;;;;3.70;0.70;;;23.10;54.70;;;;;;4494138;31;20281;-66
2022/07/05 12:35:43;;;;;;;1.55;0.52;;;23.20;54.60;;;;;;4493619;31;20073;-66
2022/07/05 12:38:16;;;;;;;4.65;1.27;;;23.20;54.60;;;;;;4493777;31;20135;-66
2022/07/05 12:40:45;;;;;;;4.93;0.80;;;23.20;54.50;;;;;;4493944;31;20069;-66
2022/07/05 12:43:16;;;;;;;3.08;0.63;;;23.30;54.40;;;;;;4493844;31;20085;-66
2022/07/05 12:45:44;;;;;;;1.40;0.68;;;23.30;54.40;;;;;;4494164;31;20103;-66
2022/07/05 12:48:11;;;;;;;2.50;0.73;;;23.30;54.50;;;;;;4493222;31;20081;-66
2022/07/05 12:50:45;;;;;;;5.50;0.75;;;23.30;54.50;;;;;;4492848;31;20178;-66
2022/07/05 12:58:55;;;;;;;2.30;0.55;;;23.30;54.50;;;;;;4493619;31;20531;-66
2022/07/05 13:01:21;;;;;;;3.67;0.88;;;23.40;54.50;;;;;;4492470;31;20069;-66
2022/07/05 13:04:11;;;;;;;4.20;0.57;;;23.40;54.30;;;;;;4493165;31;20088;-66
2022/07/05 13:06:47;;;;;;;1.08;0.45;;;23.40;54.30;;;;;;4493548;31;20069;-66
2022/07/05 13:09:15;;;;;;;4.53;0.70;;;23.50;54.30;;;;;;4493355;31;20166;-66